createdAt,value
2022-11-25T00:01:31.257Z,21.03
2022-11-25T00:03:59.583Z,26.43
2022-11-25T00:06:29.931Z,21.37
2022-11-25T00:09:07.550Z,24.13
2022-11-25T00:11:36.526Z,23.77
2022-11-25T00:14:03.702Z,19.67
2022-11-25T00:16:30.574Z,25.40
2022-11-25T00:18:58.604Z,24.50
2022-11-25T00:21:29.308Z,23.87
2022-11-25T00:23:59.034Z,20.87
2022-11-25T00:26:28.352Z,20.07
2022-11-25T00:28:57.540Z,23.33
2022-11-25T00:31:28.186Z,21.97
2022-11-25T00:33:55.218Z,19.67
2022-11-25T00:36:25.352Z,28.33
2022-11-25T00:39:01.028Z,31.53
2022-11-25T00:41:47.990Z,25.47
2022-11-25T00:44:37.479Z,25.90
2022-11-25T00:47:15.011Z,23.73
2022-11-25T00:49:51.333Z,24.87
2022-11-25T00:52:24.122Z,24.00
2022-11-25T00:54:51.855Z,23.23
2022-11-25T00:57:21.816Z,27.00
2022-11-25T00:59:49.047Z,27.80
2022-11-25T01:02:17.577Z,32.53
2022-11-25T01:04:44.982Z,43.27
2022-11-25T01:07:15.443Z,31.50
2022-11-25T01:09:42.334Z,36.67
2022-11-25T01:12:09.075Z,30.70
2022-11-25T01:14:36.508Z,35.50
2022-11-25T01:17:03.568Z,29.73
2022-11-25T01:19:33.025Z,28.00
2022-11-25T01:22:00.162Z,30.17
2022-11-25T01:24:26.915Z,24.83
2022-11-25T01:26:55.688Z,26.70
2022-11-25T01:29:22.875Z,18.40
2022-11-25T01:31:49.766Z,22.73
2022-11-25T01:34:24.155Z,22.47
2022-11-25T01:36:51.055Z,25.83
2022-11-25T01:39:28.630Z,24.20
2022-11-25T01:41:58.782Z,25.47
2022-11-25T01:44:31.799Z,18.10
2022-11-25T01:47:14.170Z,25.37
2022-11-25T01:49:46.949Z,34.57
2022-11-25T01:52:31.833Z,28.70
2022-11-25T01:55:10.445Z,34.73
2022-11-25T01:58:01.413Z,43.90
2022-11-25T02:00:28.456Z,40.73
2022-11-25T02:02:57.692Z,37.07
2022-11-25T02:05:53.685Z,42.57
2022-11-25T02:08:23.610Z,34.33
2022-11-25T02:10:53.617Z,31.37
2022-11-25T02:13:22.858Z,28.33
2022-11-25T02:15:50.237Z,23.97
2022-11-25T02:18:17.058Z,22.20
2022-11-25T02:20:45.626Z,23.33
2022-11-25T02:23:34.470Z,20.70
2022-11-25T02:26:01.853Z,21.43
2022-11-25T02:28:31.488Z,19.27
2022-11-25T02:30:59.291Z,21.27
2022-11-25T02:33:27.308Z,18.37
2022-11-25T02:36:02.871Z,20.33
2022-11-25T02:38:52.636Z,20.00
2022-11-25T02:41:37.260Z,15.90
2022-11-25T02:44:05.862Z,15.20
2022-11-25T02:46:33.341Z,21.30
2022-11-25T02:49:10.825Z,19.03
2022-11-25T02:51:43.969Z,22.10
2022-11-25T02:54:13.649Z,27.77
2022-11-25T02:56:41.065Z,23.50
2022-11-25T02:59:09.577Z,23.00
2022-11-25T03:01:38.354Z,22.47
2022-11-25T03:04:07.445Z,22.77
2022-11-25T03:06:34.232Z,22.40
2022-11-25T03:09:01.106Z,21.30
2022-11-25T03:11:48.509Z,21.97
2022-11-25T03:14:15.678Z,26.90
2022-11-25T03:16:43.221Z,20.33
2022-11-25T03:19:10.089Z,23.80
2022-11-25T03:21:36.832Z,19.43
2022-11-25T03:24:03.660Z,21.47
2022-11-25T03:26:30.411Z,19.60
2022-11-25T03:28:57.230Z,22.90
2022-11-25T03:31:23.941Z,22.37
2022-11-25T03:33:50.715Z,25.27
2022-11-25T03:36:17.474Z,22.93
2022-11-25T03:38:44.136Z,25.73
2022-11-25T03:41:10.802Z,24.20
2022-11-25T03:43:37.989Z,22.53
2022-11-25T03:46:04.776Z,21.00
2022-11-25T03:48:31.732Z,23.73
2022-11-25T03:50:58.509Z,18.37
2022-11-25T03:53:27.270Z,19.27
2022-11-25T03:55:53.937Z,22.10
2022-11-25T03:58:22.770Z,30.73
2022-11-25T04:00:50.921Z,26.23
2022-11-25T04:03:17.736Z,26.57
2022-11-25T04:05:44.589Z,22.13
2022-11-25T04:08:12.334Z,28.87
2022-11-25T04:10:39.456Z,21.97
2022-11-25T04:13:06.952Z,25.10
2022-11-25T04:15:38.157Z,22.47
2022-11-25T04:18:05.887Z,20.67
2022-11-25T04:20:33.542Z,22.50
2022-11-25T04:23:06.192Z,25.10
2022-11-25T04:25:36.583Z,18.40
2022-11-25T04:28:11.650Z,19.93
2022-11-25T04:30:39.233Z,19.03
2022-11-25T04:33:06.350Z,21.90
2022-11-25T04:35:33.525Z,23.67
2022-11-25T04:38:00.295Z,19.87
2022-11-25T04:40:27.064Z,18.83
2022-11-25T04:43:10.816Z,18.10
2022-11-25T04:48:29.365Z,22.20
2022-11-25T04:50:56.663Z,25.17
2022-11-25T04:53:24.156Z,25.53
2022-11-25T04:55:50.956Z,21.30
2022-11-25T04:58:40.316Z,24.07
2022-11-25T05:01:08.032Z,24.97
2022-11-25T05:03:35.218Z,27.73
2022-11-25T05:06:09.608Z,22.90
2022-11-25T05:08:37.932Z,18.70
2022-11-25T05:11:05.134Z,24.07
2022-11-25T05:13:32.720Z,21.53
2022-11-25T05:16:00.257Z,23.00
2022-11-25T05:18:27.277Z,29.47
2022-11-25T05:20:53.984Z,23.47
2022-11-25T05:23:21.637Z,23.57
2022-11-25T05:25:49.092Z,22.60
2022-11-25T05:28:25.488Z,17.13
2022-11-25T05:30:53.031Z,20.67
2022-11-25T05:33:20.271Z,16.60
2022-11-25T05:36:03.601Z,19.53
2022-11-25T05:38:49.467Z,21.10
2022-11-25T05:41:24.387Z,28.37
2022-11-25T05:43:52.996Z,29.00
2022-11-25T05:46:20.293Z,33.83
2022-11-25T05:48:56.047Z,48.53
2022-11-25T05:51:24.567Z,39.73
2022-11-25T05:53:53.032Z,83.57
2022-11-25T05:56:22.481Z,75.80
2022-11-25T05:59:09.266Z,38.67
2022-11-25T06:01:57.882Z,80.43
2022-11-25T06:04:24.897Z,107.93
2022-11-25T06:06:51.573Z,89.30
2022-11-25T06:09:18.416Z,81.17
2022-11-25T06:11:45.320Z,49.70
2022-11-25T06:14:12.239Z,33.97
2022-11-25T06:16:40.822Z,42.97
2022-11-25T06:19:22.587Z,56.53
2022-11-25T06:21:49.357Z,35.00
2022-11-25T06:24:16.384Z,47.67
2022-11-25T06:26:45.440Z,34.93
2022-11-25T06:29:12.214Z,60.50
2022-11-25T06:31:42.135Z,45.53
2022-11-25T06:34:36.532Z,30.10
2022-11-25T06:37:06.499Z,22.93
2022-11-25T06:39:33.240Z,19.73
2022-11-25T06:41:59.950Z,20.90
2022-11-25T06:44:26.707Z,20.07
2022-11-25T06:46:53.413Z,22.07
2022-11-25T06:49:20.198Z,20.97
2022-11-25T06:51:48.808Z,20.57
2022-11-25T06:54:15.646Z,19.03
2022-11-25T06:56:42.419Z,20.20
2022-11-25T06:59:09.328Z,20.27
2022-11-25T07:01:36.324Z,22.03
2022-11-25T07:04:05.658Z,20.67
2022-11-25T07:06:33.378Z,22.37
2022-11-25T07:09:00.479Z,20.60
2022-11-25T07:11:31.045Z,22.30
2022-11-25T07:14:02.706Z,21.23
2022-11-25T07:16:30.009Z,22.47
2022-11-25T07:19:01.773Z,18.50
2022-11-25T07:21:30.497Z,17.20
2022-11-25T07:24:00.525Z,22.00
2022-11-25T07:26:30.621Z,17.77
2022-11-25T07:29:03.728Z,26.93
2022-11-25T07:31:42.866Z,24.87
2022-11-25T07:34:20.143Z,26.13
2022-11-25T07:36:49.499Z,28.03
2022-11-25T07:39:19.658Z,24.23
2022-11-25T07:41:51.315Z,24.80
2022-11-25T07:44:18.259Z,30.73
2022-11-25T07:46:51.535Z,31.40
2022-11-25T07:49:22.176Z,29.00
2022-11-25T07:51:53.748Z,26.83
2022-11-25T07:54:22.061Z,27.63
2022-11-25T07:56:49.764Z,32.10
2022-11-25T07:59:22.224Z,25.67
2022-11-25T08:01:51.191Z,27.00
2022-11-25T08:04:20.545Z,28.13
2022-11-25T08:06:50.871Z,23.27
2022-11-25T08:09:21.878Z,27.40
2022-11-25T08:11:49.169Z,29.83
2022-11-25T08:14:16.662Z,27.83
2022-11-25T08:16:43.793Z,36.43
2022-11-25T08:19:14.931Z,28.60
2022-11-25T08:21:42.180Z,34.90
2022-11-25T08:24:18.314Z,30.03
2022-11-25T08:26:45.520Z,31.57
2022-11-25T08:29:17.429Z,29.73
2022-11-25T08:31:44.541Z,34.30
2022-11-25T08:34:23.303Z,34.97
2022-11-25T08:36:53.925Z,25.90
2022-11-25T08:39:50.586Z,29.27
2022-11-25T08:42:08.867Z,32.63
2022-11-25T08:44:36.302Z,25.47
2022-11-25T08:47:03.307Z,23.43
2022-11-25T08:49:31.193Z,19.50
2022-11-25T08:52:00.634Z,26.03
2022-11-25T08:54:27.325Z,32.97
2022-11-25T08:56:54.018Z,18.17
2022-11-25T08:59:22.831Z,17.40
2022-11-25T09:01:49.648Z,18.27
2022-11-25T09:04:19.009Z,16.90
2022-11-25T09:06:45.784Z,20.70
2022-11-25T09:09:12.532Z,15.93
2022-11-25T09:11:39.371Z,19.03
2022-11-25T09:14:06.101Z,18.40
2022-11-25T09:16:32.955Z,15.70
2022-11-25T09:19:00.077Z,16.83
2022-11-25T09:21:27.127Z,15.03
2022-11-25T09:23:54.755Z,18.00
2022-11-25T09:26:28.451Z,19.53
2022-11-25T09:28:55.714Z,19.73
2022-11-25T09:31:23.386Z,17.57
2022-11-25T09:33:50.518Z,12.33
2022-11-25T09:36:19.481Z,14.87
2022-11-25T09:38:47.116Z,14.87
2022-11-25T09:42:19.132Z,16.27
2022-11-25T09:45:14.814Z,18.03
2022-11-25T09:48:06.167Z,15.03
2022-11-25T09:50:42.694Z,12.33
2022-11-25T09:53:44.961Z,14.13
2022-11-25T09:56:34.312Z,15.17
2022-11-25T09:59:27.453Z,20.03
2022-11-25T10:02:02.708Z,19.90
2022-11-25T10:04:40.470Z,16.83
2022-11-25T10:07:22.402Z,19.07
2022-11-25T10:09:49.258Z,16.17
2022-11-25T10:12:30.840Z,16.37
2022-11-25T10:15:26.045Z,15.53
2022-11-25T10:17:58.707Z,17.48
2022-11-25T10:20:32.741Z,17.37
2022-11-25T10:23:10.556Z,17.42
2022-11-25T10:25:47.033Z,17.77
2022-11-25T10:28:19.518Z,14.63
2022-11-25T10:31:03.362Z,12.73
2022-11-25T10:33:45.601Z,16.83
2022-11-25T10:36:36.838Z,17.00
2022-11-25T10:39:19.800Z,13.23
2022-11-25T10:42:07.127Z,11.88
2022-11-25T10:44:40.336Z,13.18
2022-11-25T10:47:47.917Z,10.73
2022-11-25T10:50:51.600Z,18.15
2022-11-25T10:53:25.653Z,15.85
2022-11-25T10:56:16.966Z,16.30
2022-11-25T10:58:43.768Z,15.25
2022-11-25T11:01:18.109Z,15.17
2022-11-25T11:03:50.969Z,12.63
2022-11-25T11:06:42.245Z,19.58
2022-11-25T11:09:48.296Z,10.27
2022-11-25T11:12:29.565Z,13.13
2022-11-25T11:15:22.685Z,13.37
2022-11-25T11:17:49.805Z,12.23
2022-11-25T11:20:31.722Z,16.17
2022-11-25T11:23:09.696Z,14.45
2022-11-25T11:25:40.162Z,16.25
2022-11-25T11:28:35.021Z,13.48
2022-11-25T11:31:48.331Z,16.63
2022-11-25T11:34:43.086Z,15.63
2022-11-25T11:37:29.974Z,19.80
2022-11-25T11:40:36.086Z,14.82
2022-11-25T11:43:56.457Z,18.73
2022-11-25T11:46:51.047Z,19.20
2022-11-25T11:49:46.114Z,19.98
2022-11-25T11:52:44.204Z,18.30
2022-11-25T11:55:36.165Z,12.52
2022-11-25T11:58:09.733Z,16.15
2022-11-25T12:00:56.564Z,11.45
2022-11-25T12:03:25.346Z,18.27
2022-11-25T12:05:55.800Z,13.75
2022-11-25T12:08:52.585Z,15.77
2022-11-25T12:11:25.369Z,13.07
2022-11-25T12:14:07.380Z,9.70
2022-11-25T12:16:46.639Z,13.48
2022-11-25T12:19:33.493Z,15.52
2022-11-25T12:22:32.397Z,12.85
2022-11-25T12:25:36.752Z,11.35
2022-11-25T12:28:31.928Z,20.27
2022-11-25T12:31:19.644Z,13.15
2022-11-25T12:34:16.579Z,13.30
2022-11-25T12:36:47.259Z,13.32
2022-11-25T12:39:39.655Z,11.43
2022-11-25T12:42:16.411Z,15.77
2022-11-25T12:45:15.160Z,20.63
2022-11-25T12:47:43.528Z,17.33
2022-11-25T12:50:38.537Z,19.67
2022-11-25T12:53:16.741Z,14.15
2022-11-25T12:55:43.624Z,17.00
2022-11-25T12:58:39.030Z,10.95
2022-11-25T13:01:26.205Z,12.10
2022-11-25T13:04:30.199Z,15.52
2022-11-25T13:07:48.942Z,14.50
2022-11-25T13:10:46.698Z,14.43
2022-11-25T13:13:55.533Z,9.90
2022-11-25T13:16:23.859Z,9.27
2022-11-25T13:18:52.190Z,14.52
2022-11-25T13:21:20.513Z,9.77
2022-11-25T13:23:53.260Z,16.40
2022-11-25T13:26:33.632Z,11.27
2022-11-25T13:29:24.196Z,9.65
2022-11-25T13:32:31.203Z,12.00
2022-11-25T13:35:22.735Z,11.85
2022-11-25T13:37:50.915Z,12.82
2022-11-25T13:40:23.532Z,11.45
2022-11-25T13:42:52.181Z,12.52
2022-11-25T13:45:37.940Z,17.38
2022-11-25T13:48:30.293Z,10.80
2022-11-25T13:51:18.928Z,15.50
2022-11-25T13:53:57.897Z,15.10
2022-11-25T13:56:30.148Z,13.15
2022-11-25T13:59:12.116Z,11.60
2022-11-25T14:01:51.832Z,12.20
2022-11-25T14:04:58.003Z,12.25
2022-11-25T14:08:13.141Z,14.18
2022-11-25T14:11:08.804Z,8.60
2022-11-25T14:14:09.437Z,14.25
2022-11-25T14:17:16.937Z,19.73
2022-11-25T14:20:25.685Z,18.92
2022-11-25T14:23:26.188Z,13.98
2022-11-25T14:25:55.851Z,12.63
2022-11-25T14:29:06.912Z,13.60
2022-11-25T14:31:45.473Z,14.40
2022-11-25T14:34:27.238Z,13.18
2022-11-25T14:37:08.083Z,9.55
2022-11-25T14:40:07.095Z,12.15
2022-11-25T14:42:39.327Z,11.93
2022-11-25T14:45:31.817Z,9.00
2022-11-25T14:48:12.094Z,17.75
2022-11-25T14:50:40.662Z,14.30
2022-11-25T14:53:11.294Z,12.88
2022-11-25T14:55:38.218Z,11.88
2022-11-25T14:58:05.164Z,14.10
2022-11-25T15:00:31.940Z,11.73
2022-11-25T15:03:06.533Z,10.05
2022-11-25T15:05:39.073Z,14.00
2022-11-25T15:08:08.995Z,12.45
2022-11-25T15:10:41.266Z,10.43
2022-11-25T15:13:32.106Z,12.15
2022-11-25T15:16:20.098Z,10.05
2022-11-25T15:18:55.399Z,13.13
2022-11-25T15:21:31.701Z,14.27
2022-11-25T15:23:59.002Z,12.65
2022-11-25T15:26:29.624Z,17.58
2022-11-25T15:29:13.128Z,16.98
2022-11-25T15:31:41.936Z,11.82
2022-11-25T15:34:13.280Z,15.75
2022-11-25T15:36:41.356Z,12.48
2022-11-25T15:39:20.037Z,16.23
2022-11-25T15:41:53.441Z,19.95
2022-11-25T15:44:20.033Z,16.00
2022-11-25T15:46:56.496Z,14.25
2022-11-25T15:49:23.772Z,17.70
2022-11-25T15:51:54.070Z,13.35
2022-11-25T15:54:52.756Z,15.43
2022-11-25T15:57:31.731Z,14.85
2022-11-25T15:59:58.332Z,14.48
2022-11-25T16:02:52.690Z,12.77
2022-11-25T16:05:32.518Z,19.02
2022-11-25T16:08:29.046Z,19.80
2022-11-25T16:11:16.084Z,22.77
2022-11-25T16:13:43.281Z,32.60
2022-11-25T16:16:27.096Z,22.38
2022-11-25T16:19:15.869Z,20.25
2022-11-25T16:22:00.622Z,19.88
2022-11-25T16:24:49.209Z,19.52
2022-11-25T16:27:24.692Z,22.92
2022-11-25T16:30:06.523Z,28.17
2022-11-25T16:32:34.032Z,24.67
2022-11-25T16:35:23.693Z,22.75
2022-11-25T16:37:50.483Z,19.88
2022-11-25T16:40:18.653Z,27.00
2022-11-25T16:42:49.343Z,31.17
2022-11-25T16:45:21.351Z,17.08
2022-11-25T16:47:48.042Z,22.73
2022-11-25T16:50:16.480Z,17.58
2022-11-25T16:52:43.549Z,17.88
2022-11-25T16:55:10.865Z,16.63
2022-11-25T16:57:39.207Z,20.20
2022-11-25T17:00:13.434Z,23.27
2022-11-25T17:02:40.183Z,16.17
2022-11-25T17:05:25.249Z,22.07
2022-11-25T17:07:52.246Z,17.83
2022-11-25T17:10:20.175Z,17.55
2022-11-25T17:12:48.265Z,17.77
2022-11-25T17:15:27.102Z,20.63
2022-11-25T17:17:54.623Z,24.57
2022-11-25T17:20:25.072Z,16.93
2022-11-25T17:22:53.136Z,21.60
2022-11-25T17:25:23.655Z,32.30
2022-11-25T17:27:51.277Z,20.03
2022-11-25T17:30:23.374Z,24.07
2022-11-25T17:33:07.286Z,18.83
2022-11-25T17:35:33.982Z,23.27
2022-11-25T17:38:01.223Z,17.97
2022-11-25T17:40:28.332Z,17.00
2022-11-25T17:42:55.232Z,18.60
2022-11-25T17:45:22.327Z,22.57
2022-11-25T17:47:49.260Z,18.33
2022-11-25T17:50:23.996Z,14.93
2022-11-25T17:52:51.417Z,22.90
2022-11-25T17:55:21.534Z,20.83
2022-11-25T17:57:51.830Z,20.13
2022-11-25T18:00:22.463Z,19.73
2022-11-25T18:02:49.966Z,23.10
2022-11-25T18:05:23.091Z,17.80
2022-11-25T18:07:50.899Z,20.63
2022-11-25T18:10:22.387Z,21.70
2022-11-25T18:12:53.104Z,21.20
2022-11-25T18:15:38.568Z,18.97
2022-11-25T18:18:18.812Z,21.47
2022-11-25T18:20:45.538Z,28.47
2022-11-25T18:23:12.314Z,22.27
2022-11-25T18:25:40.364Z,23.40
2022-11-25T18:28:07.574Z,25.67
2022-11-25T18:30:36.158Z,20.27
2022-11-25T18:33:05.586Z,21.43
2022-11-25T18:35:36.351Z,21.97
2022-11-25T18:38:04.255Z,25.67
2022-11-25T18:40:31.454Z,24.83
2022-11-25T18:43:02.224Z,20.37
2022-11-25T18:45:36.612Z,26.53
2022-11-25T18:48:26.013Z,26.60
2022-11-25T18:50:55.899Z,25.73
2022-11-25T18:53:23.441Z,24.50
2022-11-25T18:55:50.541Z,27.63
2022-11-25T18:58:25.132Z,28.60
2022-11-25T19:00:53.422Z,24.80
2022-11-25T19:03:24.822Z,31.27
2022-11-25T19:05:54.144Z,27.20
2022-11-25T19:08:20.957Z,33.40
2022-11-25T19:10:49.499Z,30.20
2022-11-25T19:13:32.568Z,24.57
2022-11-25T19:16:07.570Z,34.20
2022-11-25T19:18:35.321Z,31.13
2022-11-25T19:21:02.219Z,35.63
2022-11-25T19:23:29.048Z,34.07
2022-11-25T19:26:07.489Z,31.87
2022-11-25T19:28:34.767Z,29.40
2022-11-25T19:31:04.605Z,32.37
2022-11-25T19:33:36.883Z,28.83
2022-11-25T19:36:05.518Z,27.07
2022-11-25T19:38:33.004Z,28.63
2022-11-25T19:40:59.866Z,29.87
2022-11-25T19:43:27.221Z,36.13
2022-11-25T19:45:58.163Z,31.03
2022-11-25T19:48:28.257Z,30.00
2022-11-25T19:51:03.731Z,32.63
2022-11-25T19:53:34.086Z,32.93
2022-11-25T19:56:04.207Z,35.90
2022-11-25T19:58:31.942Z,39.07
2022-11-25T20:01:03.189Z,31.87
2022-11-25T20:03:31.311Z,32.13
2022-11-25T20:05:58.807Z,34.63
2022-11-25T20:08:28.875Z,39.20
2022-11-25T20:10:57.299Z,29.90
2022-11-25T20:13:25.849Z,36.50
2022-11-25T20:15:53.980Z,37.67
2022-11-25T20:18:23.869Z,33.87
2022-11-25T20:21:00.141Z,32.23
2022-11-25T20:23:43.279Z,37.80
2022-11-25T20:26:23.633Z,33.07
2022-11-25T20:28:50.362Z,37.00
2022-11-25T20:31:17.110Z,33.93
2022-11-25T20:33:43.927Z,32.23
2022-11-25T20:36:16.834Z,33.13
2022-11-25T20:38:50.894Z,41.57
2022-11-25T20:41:19.760Z,31.73
2022-11-25T20:43:51.144Z,26.80
2022-11-25T20:46:29.818Z,29.13
2022-11-25T20:49:01.717Z,27.97
2022-11-25T20:51:29.257Z,38.53
2022-11-25T20:54:01.115Z,32.43
2022-11-25T20:56:28.855Z,33.00
2022-11-25T20:58:55.988Z,27.37
2022-11-25T21:01:22.846Z,37.73
2022-11-25T21:03:50.345Z,35.73
2022-11-25T21:06:29.144Z,42.83
2022-11-25T21:08:58.546Z,35.93
2022-11-25T21:11:26.495Z,41.20
2022-11-25T21:13:53.400Z,37.57
2022-11-25T21:16:20.391Z,36.03
2022-11-25T21:18:47.296Z,38.77
2022-11-25T21:21:28.494Z,40.13
2022-11-25T21:23:55.260Z,33.17
2022-11-25T21:26:26.480Z,35.63
2022-11-25T21:28:54.592Z,40.00
2022-11-25T21:31:25.070Z,30.63
2022-11-25T21:33:57.210Z,32.53
2022-11-25T21:36:28.529Z,35.97
2022-11-25T21:39:46.095Z,38.30
2022-11-25T21:42:20.516Z,36.53
2022-11-25T21:44:49.922Z,35.87
2022-11-25T21:47:26.360Z,41.00
2022-11-25T21:49:53.506Z,34.40
2022-11-25T21:52:20.215Z,33.30
2022-11-25T21:54:47.079Z,34.20
2022-11-25T21:57:21.537Z,39.00
2022-11-25T21:59:48.682Z,35.13
2022-11-25T22:02:22.930Z,37.23
2022-11-25T22:04:50.556Z,39.63
2022-11-25T22:07:17.707Z,39.30
2022-11-25T22:09:44.566Z,42.80
2022-11-25T22:12:28.703Z,37.67
2022-11-25T22:14:58.292Z,40.63
2022-11-25T22:17:25.957Z,35.63
2022-11-25T22:19:53.265Z,34.60
2022-11-25T22:22:19.991Z,35.00
2022-11-25T22:24:46.693Z,37.77
2022-11-25T22:27:36.549Z,32.37
2022-11-25T22:30:05.879Z,43.53
2022-11-25T22:32:32.738Z,31.23
2022-11-25T22:34:59.404Z,36.80
2022-11-25T22:37:26.104Z,38.17
2022-11-25T22:39:52.978Z,40.13
2022-11-25T22:42:32.221Z,39.40
2022-11-25T22:45:03.545Z,43.30
2022-11-25T22:47:46.249Z,43.90
2022-11-25T22:50:23.506Z,37.83
2022-11-25T22:52:53.379Z,51.90
2022-11-25T22:55:31.584Z,40.50
2022-11-25T22:58:00.886Z,41.40
2022-11-25T23:00:42.473Z,49.60
2022-11-25T23:03:23.405Z,35.40
2022-11-25T23:05:52.308Z,39.93
2022-11-25T23:08:22.614Z,45.17
2022-11-25T23:10:51.480Z,40.87
2022-11-25T23:13:20.220Z,43.93
2022-11-25T23:16:00.198Z,42.57
2022-11-25T23:18:42.757Z,46.33
2022-11-25T23:21:23.986Z,33.77
2022-11-25T23:23:51.451Z,50.47
2022-11-25T23:26:18.129Z,49.77
2022-11-25T23:28:44.870Z,45.97
2022-11-25T23:31:16.678Z,41.07
2022-11-25T23:33:47.977Z,52.77
2022-11-25T23:36:42.789Z,42.80
2022-11-25T23:39:20.313Z,46.50
2022-11-25T23:41:48.667Z,42.00
2022-11-25T23:44:34.023Z,47.47
2022-11-25T23:47:06.419Z,49.70
2022-11-25T23:49:44.391Z,53.43
2022-11-25T23:52:18.673Z,46.17
2022-11-25T23:54:47.647Z,48.23
2022-11-25T23:57:19.791Z,42.83
2022-11-25T23:59:48.115Z,51.60
